createdAt,value
2023-04-25T00:01:05.871Z,0.90
2023-04-25T00:03:34.219Z,1.10
2023-04-25T00:06:03.408Z,0.55
2023-04-25T00:08:31.305Z,1.00
2023-04-25T00:10:59.018Z,0.70
2023-04-25T00:13:27.540Z,1.13
2023-04-25T00:15:57.264Z,0.68
2023-04-25T00:18:25.123Z,0.82
2023-04-25T00:20:53.640Z,0.88
2023-04-25T00:23:22.192Z,0.90
2023-04-25T00:25:51.001Z,0.85
2023-04-25T00:28:18.784Z,0.60
2023-04-25T00:30:46.860Z,0.52
2023-04-25T00:33:16.128Z,0.90
2023-04-25T00:35:44.230Z,0.65
2023-04-25T00:38:11.997Z,0.52
2023-04-25T00:40:39.652Z,0.47
2023-04-25T00:43:07.342Z,0.73
2023-04-25T00:45:39.561Z,0.52
2023-04-25T00:48:07.384Z,0.82
2023-04-25T00:50:36.730Z,0.70
2023-04-25T00:53:05.493Z,1.05
2023-04-25T00:55:33.479Z,0.77
2023-04-25T00:58:01.366Z,0.88
2023-04-25T01:00:29.015Z,0.73
2023-04-25T01:02:56.843Z,0.80
2023-04-25T01:05:24.573Z,1.30
2023-04-25T01:07:53.676Z,0.77
2023-04-25T01:10:21.370Z,0.80
2023-04-25T01:12:49.160Z,0.70
2023-04-25T01:15:17.249Z,0.43
2023-04-25T01:17:45.425Z,0.93
2023-04-25T01:20:13.898Z,0.95
2023-04-25T01:22:42.929Z,0.77
2023-04-25T01:25:11.040Z,1.23
2023-04-25T01:27:38.763Z,0.55
2023-04-25T01:30:07.726Z,0.93
2023-04-25T01:32:39.419Z,0.43
2023-04-25T01:35:10.237Z,0.50
2023-04-25T01:37:38.222Z,1.08
2023-04-25T01:40:08.018Z,0.77
2023-04-25T01:42:36.574Z,0.30
2023-04-25T01:45:04.312Z,0.17
2023-04-25T01:47:33.102Z,0.40
2023-04-25T01:50:00.952Z,0.52
2023-04-25T01:52:28.623Z,0.55
2023-04-25T01:54:56.589Z,0.32
2023-04-25T01:57:25.741Z,0.73
2023-04-25T01:59:54.723Z,0.88
2023-04-25T02:02:22.726Z,0.82
2023-04-25T02:04:50.478Z,0.43
2023-04-25T02:07:18.146Z,0.82
2023-04-25T02:09:45.919Z,0.32
2023-04-25T02:12:13.594Z,0.32
2023-04-25T02:14:42.630Z,0.68
2023-04-25T02:17:10.357Z,0.88
2023-04-25T02:19:38.116Z,0.63
2023-04-25T02:22:05.817Z,0.63
2023-04-25T02:24:34.708Z,0.50
2023-04-25T02:27:02.342Z,0.63
2023-04-25T02:29:31.542Z,0.52
2023-04-25T02:32:00.534Z,0.60
2023-04-25T02:34:28.242Z,0.40
2023-04-25T02:36:56.066Z,0.68
2023-04-25T02:39:26.054Z,0.85
2023-04-25T02:41:53.836Z,0.70
2023-04-25T02:44:21.538Z,0.60
2023-04-25T02:46:49.235Z,0.60
2023-04-25T02:49:18.300Z,0.75
2023-04-25T02:51:45.962Z,1.15
2023-04-25T02:54:13.652Z,0.70
2023-04-25T02:56:41.471Z,0.70
2023-04-25T02:59:10.333Z,0.77
2023-04-25T03:01:37.963Z,0.75
2023-04-25T03:04:06.018Z,0.77
2023-04-25T03:08:04.534Z,0.60
2023-04-25T03:10:32.171Z,0.47
2023-04-25T03:12:59.744Z,0.30
2023-04-25T03:15:27.581Z,0.40
2023-04-25T03:17:55.204Z,1.25
2023-04-25T03:20:22.948Z,1.30
2023-04-25T03:22:51.392Z,0.77
2023-04-25T03:25:20.388Z,0.90
2023-04-25T03:27:48.009Z,0.50
2023-04-25T03:30:15.883Z,0.40
2023-04-25T03:32:43.587Z,0.60
2023-04-25T03:35:11.202Z,0.45
2023-04-25T03:37:38.846Z,0.80
2023-04-25T03:40:07.009Z,0.75
2023-04-25T03:42:35.976Z,0.75
2023-04-25T03:45:03.726Z,0.70
2023-04-25T03:47:31.620Z,0.57
2023-04-25T03:49:59.405Z,0.82
2023-04-25T03:52:27.076Z,1.17
2023-04-25T03:54:54.729Z,0.90
2023-04-25T03:57:22.397Z,0.90
2023-04-25T03:59:51.548Z,0.82
2023-04-25T04:02:19.852Z,0.65
2023-04-25T04:04:47.910Z,0.47
2023-04-25T04:07:15.769Z,0.82
2023-04-25T04:09:43.406Z,0.50
2023-04-25T04:12:11.214Z,0.70
2023-04-25T04:14:38.868Z,0.77
2023-04-25T04:17:08.164Z,0.80
2023-04-25T04:19:35.882Z,0.55
2023-04-25T04:22:03.553Z,0.75
2023-04-25T04:24:31.174Z,0.70
2023-04-25T04:26:58.820Z,0.45
2023-04-25T04:29:26.501Z,0.98
2023-04-25T04:31:54.669Z,0.85
2023-04-25T04:34:25.357Z,1.05
2023-04-25T04:36:53.053Z,0.73
2023-04-25T04:39:21.466Z,3.47
2023-04-25T04:41:49.301Z,4.43
2023-04-25T04:44:16.937Z,2.80
2023-04-25T04:46:45.455Z,0.60
2023-04-25T04:49:13.404Z,0.82
2023-04-25T04:51:45.383Z,0.77
2023-04-25T04:54:13.058Z,1.25
2023-04-25T04:56:40.698Z,1.48
2023-04-25T04:59:08.449Z,0.95
2023-04-25T05:01:36.857Z,0.75
2023-04-25T05:04:04.946Z,1.42
2023-04-25T05:06:33.000Z,1.33
2023-04-25T05:09:02.111Z,0.90
2023-04-25T05:11:29.771Z,0.73
2023-04-25T05:13:57.384Z,0.68
2023-04-25T05:16:25.181Z,0.68
2023-04-25T05:18:52.870Z,0.68
2023-04-25T05:21:20.662Z,0.65
2023-04-25T05:23:48.397Z,0.52
2023-04-25T05:26:17.398Z,0.70
2023-04-25T05:28:45.049Z,1.85
2023-04-25T05:31:12.693Z,2.05
2023-04-25T05:33:40.403Z,1.42
2023-04-25T05:36:08.548Z,2.50
2023-04-25T05:38:36.234Z,4.07
2023-04-25T05:41:03.984Z,2.60
2023-04-25T05:43:32.971Z,1.40
2023-04-25T05:46:01.054Z,3.40
2023-04-25T05:48:28.752Z,10.02
2023-04-25T05:50:56.488Z,4.40
2023-04-25T05:53:24.134Z,3.90
2023-04-25T05:55:51.812Z,1.42
2023-04-25T05:58:19.477Z,0.60
2023-04-25T06:00:48.499Z,0.20
2023-04-25T06:03:19.554Z,0.10
2023-04-25T06:05:48.397Z,0.05
2023-04-25T06:08:16.247Z,0.45
2023-04-25T06:10:44.104Z,0.30
2023-04-25T06:13:11.793Z,0.65
2023-04-25T06:15:39.512Z,0.60
2023-04-25T06:18:09.022Z,0.43
2023-04-25T06:20:36.709Z,3.28
2023-04-25T06:23:04.316Z,3.85
2023-04-25T06:25:31.938Z,0.75
2023-04-25T06:27:59.548Z,3.28
2023-04-25T06:30:27.543Z,7.22
2023-04-25T06:32:55.324Z,1.27
2023-04-25T06:35:24.355Z,0.50
2023-04-25T06:37:51.974Z,0.17
2023-04-25T06:40:19.624Z,0.35
2023-04-25T06:42:47.281Z,0.77
2023-04-25T06:45:14.885Z,1.00
2023-04-25T06:47:42.559Z,0.40
2023-04-25T06:50:10.545Z,0.38
2023-04-25T06:52:39.548Z,0.50
2023-04-25T06:55:07.525Z,1.05
2023-04-25T06:57:35.232Z,0.63
2023-04-25T07:00:06.329Z,0.38
2023-04-25T07:02:34.048Z,0.65
2023-04-25T07:05:01.719Z,0.57
2023-04-25T07:07:29.429Z,0.20
2023-04-25T07:09:58.435Z,0.57
2023-04-25T07:12:26.051Z,0.65
2023-04-25T07:14:53.711Z,1.42
2023-04-25T07:17:21.336Z,0.38
2023-04-25T07:19:49.057Z,0.50
2023-04-25T07:22:16.770Z,0.70
2023-04-25T07:24:48.317Z,0.43
2023-04-25T07:27:17.389Z,0.35
2023-04-25T07:29:45.126Z,0.20
2023-04-25T07:32:14.700Z,0.20
2023-04-25T07:34:42.598Z,0.28
2023-04-25T07:37:10.256Z,0.30
2023-04-25T07:39:38.125Z,0.40
2023-04-25T07:42:10.247Z,0.35
2023-04-25T07:44:41.022Z,0.40
2023-04-25T07:47:09.066Z,0.40
2023-04-25T07:49:36.823Z,0.20
2023-04-25T07:52:05.220Z,0.32
2023-04-25T07:54:33.380Z,0.38
2023-04-25T07:57:01.089Z,0.35
2023-04-25T07:59:30.223Z,0.68
2023-04-25T08:01:59.461Z,0.10
2023-04-25T08:04:27.309Z,0.73
2023-04-25T08:06:55.679Z,0.40
2023-04-25T08:09:23.356Z,0.20
2023-04-25T08:11:51.115Z,0.20
2023-04-25T08:14:18.840Z,0.45
2023-04-25T08:16:46.654Z,0.82
2023-04-25T08:19:15.685Z,0.22
2023-04-25T08:21:43.302Z,0.15
2023-04-25T08:24:10.963Z,0.20
2023-04-25T08:26:39.941Z,0.25
2023-04-25T08:29:07.680Z,0.40
2023-04-25T08:31:35.418Z,0.40
2023-04-25T08:34:03.107Z,0.30
2023-04-25T08:36:39.352Z,0.20
2023-04-25T08:39:08.173Z,0.28
2023-04-25T08:41:36.293Z,0.28
2023-04-25T08:44:05.496Z,0.10
2023-04-25T08:46:33.490Z,0.22
2023-04-25T08:49:02.656Z,0.20
2023-04-25T08:51:32.873Z,0.17
2023-04-25T08:54:30.906Z,0.20
2023-04-25T08:57:00.071Z,0.22
2023-04-25T08:59:27.949Z,0.10
2023-04-25T09:01:55.739Z,0.08
2023-04-25T09:04:23.611Z,0.17
2023-04-25T09:06:51.557Z,0.05
2023-04-25T09:09:20.555Z,0.00
2023-04-25T09:11:48.219Z,0.00
2023-04-25T09:14:16.717Z,0.00
2023-04-25T09:16:53.296Z,0.00
2023-04-25T09:19:31.942Z,0.20
2023-04-25T09:22:06.833Z,0.15
2023-04-25T09:24:37.734Z,0.00
2023-04-25T09:27:06.028Z,0.20
2023-04-25T09:29:34.116Z,0.20
2023-04-25T09:32:10.682Z,0.20
2023-04-25T09:34:40.700Z,0.10
2023-04-25T09:37:08.371Z,0.00
2023-04-25T09:39:38.195Z,0.35
2023-04-25T09:42:05.958Z,0.17
2023-04-25T09:44:33.916Z,0.10
2023-04-25T09:47:01.584Z,0.20
2023-04-25T09:49:29.463Z,0.43
2023-04-25T09:51:57.937Z,0.40
2023-04-25T09:54:25.859Z,0.30
2023-04-25T09:56:55.300Z,0.40
2023-04-25T09:59:24.315Z,0.22
2023-04-25T10:01:52.261Z,0.20
2023-04-25T10:04:21.750Z,0.10
2023-04-25T10:06:51.269Z,0.28
2023-04-25T10:09:21.358Z,0.22
2023-04-25T10:11:49.894Z,0.15
2023-04-25T10:14:20.041Z,0.30
2023-04-25T10:16:49.113Z,0.32
2023-04-25T10:19:17.218Z,0.20
2023-04-25T10:21:48.325Z,0.40
2023-04-25T10:24:16.409Z,0.20
2023-04-25T10:26:44.245Z,0.57
2023-04-25T10:29:11.861Z,0.60
2023-04-25T10:31:48.625Z,1.15
2023-04-25T10:34:17.463Z,0.30
2023-04-25T10:36:45.051Z,0.50
2023-04-25T10:39:12.689Z,0.47
2023-04-25T10:41:48.167Z,0.38
2023-04-25T10:44:16.360Z,0.30
2023-04-25T10:46:46.265Z,0.40
2023-04-25T10:49:30.211Z,0.45
2023-04-25T10:52:13.038Z,0.60
2023-04-25T10:54:42.585Z,0.82
2023-04-25T10:57:28.682Z,0.50
2023-04-25T10:59:56.780Z,0.52
2023-04-25T11:02:28.170Z,0.57
2023-04-25T11:04:57.206Z,0.57
2023-04-25T11:07:28.112Z,0.30
2023-04-25T11:09:55.932Z,0.30
2023-04-25T11:12:26.780Z,0.80
2023-04-25T11:15:00.261Z,0.70
2023-04-25T11:17:28.116Z,0.65
2023-04-25T11:19:57.929Z,0.73
2023-04-25T11:22:25.773Z,1.13
2023-04-25T11:24:53.598Z,0.20
2023-04-25T11:27:21.465Z,0.13
2023-04-25T11:29:49.354Z,0.40
2023-04-25T11:32:17.541Z,0.30
2023-04-25T11:34:46.848Z,0.77
2023-04-25T11:37:16.103Z,0.50
2023-04-25T11:39:45.248Z,0.32
2023-04-25T11:42:13.875Z,0.20
2023-04-25T11:44:42.324Z,0.50
2023-04-25T11:47:10.276Z,0.70
2023-04-25T11:49:38.049Z,0.25
2023-04-25T11:52:08.183Z,0.40
2023-04-25T11:54:38.958Z,0.38
2023-04-25T11:57:06.707Z,0.68
2023-04-25T11:59:34.375Z,0.50
2023-04-25T12:02:03.854Z,0.30
2023-04-25T12:04:32.854Z,0.50
2023-04-25T12:07:02.645Z,0.70
2023-04-25T12:09:31.211Z,0.47
2023-04-25T12:12:03.717Z,0.47
2023-04-25T12:17:01.710Z,0.45
2023-04-25T12:19:34.183Z,0.60
2023-04-25T12:22:02.536Z,0.47
2023-04-25T12:24:30.133Z,0.30
2023-04-25T12:27:02.967Z,0.35
2023-04-25T12:29:42.019Z,0.75
2023-04-25T12:34:43.349Z,0.20
2023-04-25T12:37:11.395Z,0.28
2023-04-25T12:39:39.187Z,0.20
2023-04-25T12:42:09.688Z,0.40
2023-04-25T12:44:37.670Z,0.45
2023-04-25T12:47:06.483Z,0.45
2023-04-25T12:49:34.448Z,0.57
2023-04-25T12:52:02.113Z,0.60
2023-04-25T12:54:29.719Z,0.82
2023-04-25T12:56:57.357Z,0.70
2023-04-25T12:59:26.423Z,0.50
2023-04-25T13:01:54.121Z,1.05
2023-04-25T13:04:22.550Z,0.35
2023-04-25T13:06:50.577Z,0.60
2023-04-25T13:09:18.409Z,0.43
2023-04-25T13:11:46.906Z,0.68
2023-04-25T13:14:14.671Z,0.40
2023-04-25T13:16:43.679Z,0.70
2023-04-25T13:19:12.532Z,0.40
2023-04-25T13:21:40.251Z,0.70
2023-04-25T13:24:08.131Z,0.40
2023-04-25T13:26:35.772Z,0.70
2023-04-25T13:29:04.616Z,0.60
2023-04-25T13:31:33.290Z,0.60
2023-04-25T13:34:02.380Z,0.50
2023-04-25T13:36:30.020Z,0.50
2023-04-25T13:38:57.641Z,0.63
2023-04-25T13:41:25.294Z,0.43
2023-04-25T13:43:53.386Z,0.65
2023-04-25T13:46:40.713Z,0.50
2023-04-25T13:49:13.282Z,0.40
2023-04-25T13:51:41.352Z,0.43
2023-04-25T13:54:09.050Z,0.32
2023-04-25T13:56:36.767Z,0.73
2023-04-25T13:59:04.817Z,0.60
2023-04-25T14:01:35.296Z,0.75
2023-04-25T14:04:04.807Z,0.50
2023-04-25T14:06:34.870Z,0.60
2023-04-25T14:09:02.646Z,0.50
2023-04-25T14:11:30.634Z,0.43
2023-04-25T14:13:58.301Z,0.50
2023-04-25T14:16:26.033Z,1.67
2023-04-25T14:18:53.861Z,0.43
2023-04-25T14:21:21.992Z,0.50
2023-04-25T14:23:51.272Z,0.70
2023-04-25T14:26:19.249Z,0.35
2023-04-25T14:28:46.964Z,0.45
2023-04-25T14:31:14.686Z,0.20
2023-04-25T14:33:43.788Z,0.57
2023-04-25T14:36:12.051Z,0.80
2023-04-25T14:38:39.827Z,0.40
2023-04-25T14:41:09.030Z,0.50
2023-04-25T14:43:37.387Z,0.30
2023-04-25T14:46:05.070Z,0.40
2023-04-25T14:48:32.791Z,0.30
2023-04-25T14:51:00.928Z,0.20
2023-04-25T14:53:29.072Z,0.35
2023-04-25T14:55:57.077Z,0.43
2023-04-25T15:24:19.341Z,1.48
2023-04-25T15:26:47.484Z,0.63
2023-04-25T15:29:15.461Z,0.45
2023-04-25T15:31:43.340Z,0.30
2023-04-25T15:34:11.001Z,0.65
2023-04-25T15:36:38.632Z,0.30
2023-04-25T15:39:06.306Z,0.32
2023-04-25T15:41:35.372Z,0.22
2023-04-25T15:44:03.093Z,0.30
2023-04-25T15:46:32.095Z,0.10
2023-04-25T15:49:00.049Z,0.35
2023-04-25T15:51:28.156Z,0.45
2023-04-25T15:53:56.458Z,0.35
2023-04-25T15:56:24.131Z,0.35
2023-04-25T15:58:55.232Z,0.40
2023-04-25T16:01:24.656Z,0.30
2023-04-25T16:03:53.255Z,0.45
2023-04-25T16:06:21.288Z,0.50
2023-04-25T16:08:48.905Z,0.50
2023-04-25T16:11:16.602Z,0.52
2023-04-25T16:13:44.356Z,0.25
2023-04-25T16:16:13.407Z,0.47
2023-04-25T16:18:41.117Z,0.22
2023-04-25T16:21:08.917Z,0.20
2023-04-25T16:23:36.582Z,0.60
2023-04-25T16:26:04.262Z,0.50
2023-04-25T16:28:32.134Z,0.70
2023-04-25T16:31:00.725Z,0.40
2023-04-25T16:33:29.960Z,0.43
2023-04-25T16:35:58.155Z,0.50
2023-04-25T16:38:25.827Z,0.52
2023-04-25T16:40:54.480Z,0.82
2023-04-25T16:43:22.357Z,0.98
2023-04-25T16:45:50.064Z,0.65
2023-04-25T16:48:19.832Z,0.22
2023-04-25T16:50:48.884Z,1.00
2023-04-25T16:53:17.451Z,0.65
2023-04-25T16:55:45.527Z,0.65
2023-04-25T16:58:14.360Z,0.95
2023-04-25T17:00:42.883Z,0.60
2023-04-25T17:03:10.767Z,0.63
2023-04-25T17:05:38.648Z,0.30
2023-04-25T17:08:08.311Z,0.60
2023-04-25T17:10:35.980Z,0.50
2023-04-25T17:13:03.707Z,0.40
2023-04-25T17:15:33.094Z,0.35
2023-04-25T17:18:02.110Z,0.50
2023-04-25T17:20:29.804Z,0.30
2023-04-25T17:22:58.061Z,0.65
2023-04-25T17:25:27.095Z,0.50
2023-04-25T17:27:55.362Z,0.70
2023-04-25T17:30:23.772Z,0.30
2023-04-25T17:32:52.153Z,0.60
2023-04-25T17:35:19.920Z,0.65
2023-04-25T17:37:48.590Z,0.98
2023-04-25T17:40:16.246Z,0.70
2023-04-25T17:42:46.041Z,0.77
2023-04-25T17:45:13.877Z,0.73
2023-04-25T17:47:41.813Z,0.40
2023-04-25T17:50:09.746Z,0.60
2023-04-25T17:52:38.646Z,0.65
2023-04-25T17:55:06.897Z,0.70
2023-04-25T17:57:34.616Z,0.32
2023-04-25T18:00:05.776Z,0.60
2023-04-25T18:02:33.739Z,0.38
2023-04-25T18:05:01.594Z,0.70
2023-04-25T18:07:29.536Z,0.60
2023-04-25T18:09:57.216Z,0.88
2023-04-25T18:12:26.803Z,0.70
2023-04-25T18:14:55.738Z,0.28
2023-04-25T18:17:25.249Z,0.50
2023-04-25T18:19:53.149Z,0.57
2023-04-25T18:22:20.933Z,0.63
2023-04-25T18:24:48.720Z,1.00
2023-04-25T18:27:16.427Z,0.80
2023-04-25T18:29:45.491Z,0.63
2023-04-25T18:32:13.571Z,0.40
2023-04-25T18:34:43.927Z,0.90
2023-04-25T18:37:13.049Z,0.85
2023-04-25T18:39:41.279Z,0.43
2023-04-25T18:42:09.269Z,0.32
2023-04-25T18:44:40.014Z,0.55
2023-04-25T18:47:07.980Z,0.60
2023-04-25T18:49:35.731Z,0.40
2023-04-25T18:52:05.042Z,0.52
2023-04-25T18:54:32.936Z,0.73
2023-04-25T18:57:01.214Z,0.73
2023-04-25T18:59:28.997Z,0.50
2023-04-25T19:01:56.744Z,0.50
2023-04-25T19:04:24.542Z,0.90
2023-04-25T19:06:52.236Z,0.93
2023-04-25T19:09:21.257Z,0.98
2023-04-25T19:11:49.118Z,0.88
2023-04-25T19:14:16.779Z,0.95
2023-04-25T19:16:44.507Z,1.35
2023-04-25T19:19:12.524Z,0.93
2023-04-25T19:21:40.303Z,0.43
2023-04-25T19:24:08.518Z,0.65
2023-04-25T19:26:37.559Z,1.15
2023-04-25T19:29:06.773Z,0.30
2023-04-25T19:31:34.772Z,0.70
2023-04-25T19:34:02.546Z,0.80
2023-04-25T19:36:30.188Z,0.77
2023-04-25T19:39:02.692Z,0.65
2023-04-25T19:41:30.633Z,0.52
2023-04-25T19:44:00.720Z,0.43
2023-04-25T19:46:28.546Z,0.68
2023-04-25T19:48:56.557Z,0.43
2023-04-25T19:51:24.187Z,0.30
2023-04-25T19:53:52.097Z,1.08
2023-04-25T19:56:19.926Z,0.98
2023-04-25T19:58:48.079Z,0.90
2023-04-25T20:01:17.358Z,0.57
2023-04-25T20:03:48.132Z,0.43
2023-04-25T20:06:16.152Z,0.65
2023-04-25T20:08:44.254Z,0.30
2023-04-25T20:11:12.152Z,0.60
2023-04-25T20:13:39.773Z,0.20
2023-04-25T20:16:07.785Z,0.40
2023-04-25T20:18:36.795Z,0.30
2023-04-25T20:21:04.560Z,0.43
2023-04-25T20:23:32.179Z,0.25
2023-04-25T20:26:00.052Z,0.20
2023-04-25T20:28:27.833Z,0.28
2023-04-25T20:30:55.515Z,0.30
2023-04-25T20:33:23.157Z,0.38
2023-04-25T20:35:53.042Z,0.20
2023-04-25T20:38:20.713Z,0.20
2023-04-25T20:40:48.393Z,0.40
2023-04-25T20:43:17.071Z,0.17
2023-04-25T20:45:44.771Z,0.73
2023-04-25T20:48:12.444Z,0.22
2023-04-25T20:50:40.116Z,0.60
2023-04-25T20:53:09.153Z,0.52
2023-04-25T20:55:37.219Z,0.40
2023-04-25T20:58:04.889Z,0.43
2023-04-25T21:00:32.514Z,0.40
2023-04-25T21:03:03.017Z,0.35
2023-04-25T21:05:30.784Z,0.13
2023-04-25T21:07:58.888Z,0.30
2023-04-25T21:10:27.933Z,0.03
2023-04-25T21:12:56.679Z,0.50
2023-04-25T21:15:24.967Z,0.32
2023-04-25T21:17:53.080Z,0.08
2023-04-25T21:20:21.966Z,0.22
2023-04-25T21:22:53.070Z,0.28
2023-04-25T21:25:24.194Z,0.20
2023-04-25T21:27:53.581Z,0.50
2023-04-25T21:30:23.377Z,0.17
2023-04-25T21:32:52.083Z,0.20
2023-04-25T21:35:20.430Z,0.50
2023-04-25T21:37:48.373Z,0.25
2023-04-25T21:40:16.357Z,0.73
2023-04-25T21:42:44.648Z,0.35
2023-04-25T21:45:13.922Z,0.28
2023-04-25T21:47:41.666Z,0.10
2023-04-25T21:50:09.716Z,0.08
2023-04-25T21:52:37.340Z,0.10
2023-04-25T21:55:05.758Z,0.32
2023-04-25T21:57:33.416Z,0.50
2023-04-25T22:00:01.132Z,0.32
2023-04-25T22:02:31.221Z,0.55
2023-04-25T22:04:59.024Z,0.20
2023-04-25T22:07:26.669Z,0.22
2023-04-25T22:09:55.777Z,1.00
2023-04-25T22:12:23.902Z,0.17
2023-04-25T22:14:51.563Z,0.57
2023-04-25T22:17:19.379Z,0.30
2023-04-25T22:19:50.133Z,0.10
2023-04-25T22:22:18.320Z,0.20
2023-04-25T22:24:47.310Z,0.30
2023-04-25T22:27:14.953Z,0.40
2023-04-25T22:29:42.737Z,0.10
2023-04-25T22:32:10.359Z,0.20
2023-04-25T22:34:37.980Z,0.50
2023-04-25T22:37:07.003Z,0.57
2023-04-25T22:39:34.631Z,0.30
2023-04-25T22:42:02.617Z,0.30
2023-04-25T22:44:30.295Z,0.30
2023-04-25T22:46:58.687Z,0.40
2023-04-25T22:49:26.397Z,0.40
2023-04-25T22:51:55.595Z,0.22
2023-04-25T22:54:24.652Z,0.30
2023-04-25T22:56:52.357Z,0.20
2023-04-25T22:59:20.793Z,0.22
2023-04-25T23:01:49.978Z,0.15
2023-04-25T23:04:18.836Z,0.40
2023-04-25T23:06:46.893Z,0.28
2023-04-25T23:09:15.932Z,0.15
2023-04-25T23:11:44.934Z,0.32
2023-04-25T23:14:12.592Z,0.10
2023-04-25T23:16:40.770Z,0.30
2023-04-25T23:19:08.499Z,0.20
2023-04-25T23:21:36.159Z,0.35
2023-04-25T23:24:03.932Z,0.28
2023-04-25T23:26:31.753Z,0.17
2023-04-25T23:29:00.953Z,0.20
2023-04-25T23:31:29.378Z,0.20
2023-04-25T23:33:57.150Z,0.00
2023-04-25T23:36:24.775Z,0.28
2023-04-25T23:38:52.612Z,0.10
2023-04-25T23:41:20.380Z,0.00
2023-04-25T23:43:48.025Z,0.17
2023-04-25T23:46:17.297Z,0.20
2023-04-25T23:48:44.974Z,0.52
2023-04-25T23:51:12.576Z,0.57
2023-04-25T23:53:40.184Z,0.20
2023-04-25T23:56:07.857Z,0.40
2023-04-25T23:58:35.514Z,0.38
